Nearby METAR Reports

 Weather conditions at key Metar weather stations is recorded hourly. Metar weather stations are the stations set up at regional or major airports and often considered the official stations of record for a local area.

KSEA - Seattle/Tacoma Airport
Updated: 08/17/2017 1:53pm
Partly cloudy
Partly cloudy
 Wind from W
Wind: W 8 mph , 13 km/h
Temperature: 70°F , 21°C
Dew Point: 54°F , 12°C
Humidity: 57%
Barometer: 30.20 inHg , 1022.7 hPa
Clouds: Partly cloudy
Visibility: 10 miles , 16 km
Cloud details: Partly cloudy 2800 ft
2017/08/17 20:53 KSEA 172053Z 26007KT 240V300 10SM SCT028 21/12 A3020 RMK AO2 SLP230 T02110122 55004
KTIW - Tacoma Narrows Bridge
Updated: 08/17/2017 1:53pm
Mostly cloudy
Mostly cloudy
 Wind from calm
Wind: Calm
Temperature: 68°F , 20°C
Dew Point: 55°F , 13°C
Humidity: 64%
Barometer: 30.20 inHg , 1022.7 hPa
Clouds: Mostly cloudy
Visibility: 10 miles , 16 km
Cloud details: Mostly cloudy 2900 ft
2017/08/17 20:53 KTIW 172053Z 00000KT 10SM BKN029 20/13 A3020 RMK AO2 SLP223 T02000128 56005
 
KBLI - Bellingham
Updated: 08/17/2017 1:53pm
Clear
Clear
 Wind from varies
Wind: varies 7 mph , 11 km/h
Temperature: 68°F , 20°C
Dew Point: 55°F , 13°C
Humidity: 64%
Barometer: 30.18 inHg , 1022 hPa
Clouds: Clear
Visibility: 10 miles , 16 km
2017/08/17 20:53 KBLI 172053Z VRB06KT 10SM CLR 20/13 A3018 RMK AO2 SLP225 T02000133 50002
KUIL - Quillayute-La Push
Updated: 08/17/2017 1:53pm
Overcast
Overcast
 Wind from NNW
Wind: NNW 6 mph , 9 km/h
Temperature: 66°F , 19°C
Dew Point: 52°F , 11°C
Humidity: 60%
Barometer: 30.22 inHg , 1023.4 hPa
Clouds: Overcast
Visibility: 10 miles , 16 km
Cloud details: Overcast 2700 ft
2017/08/17 20:53 KUIL 172053Z AUTO 33005KT 10SM OVC027 19/11 A3022 RMK AO2 SLP234 T01890111 50002
 
KYKM - Yakima
Updated: 08/17/2017 1:53pm
Clear
Clear
 Wind from calm
Wind: Calm
Temperature: 88°F , 31°C
Dew Point: 46°F , 8°C
Humidity: 24%
Barometer: 30.04 inHg , 1017.3 hPa
Clouds: Clear
Visibility: 10 miles , 16 km
2017/08/17 20:53 KYKM 172053Z 00000KT 10SM CLR 31/08 A3004 RMK AO2 RAB16E22 SLP164 P0002 60002 T03060078 58010
KGEG - Spokane
Updated: 08/17/2017 1:53pm
Few Clouds
Few Clouds
 Wind from WSW
Wind: WSW 8 mph , 13 km/h, Gust: 16 mph , 26 km/h
Temperature: 81°F , 27°C
Dew Point: 43°F , 6°C
Humidity: 26%
Barometer: 30.08 inHg , 1018.6 hPa
Clouds: Few Clouds
Visibility: 10 miles , 16 km
Cloud details: Few Clouds 7000 ft
Few Clouds 10000 ft
Few Clouds 25000 ft
2017/08/17 20:53 KGEG 172053Z 25007G14KT 10SM FEW070 FEW100 FEW250 27/06 A3008 RMK AO2 SLP171 FU FEW250 T02670061 58004
 
KPDX - Portland
Updated: 08/17/2017 1:53pm
Few Clouds
Few Clouds
 Wind from W
Wind: W 6 mph , 9 km/h
Temperature: 73°F , 23°C
Dew Point: 54°F , 12°C
Humidity: 50%
Barometer: 30.16 inHg , 1021.3 hPa
Clouds: Few Clouds
Visibility: 10 miles , 16 km
Cloud details: Few Clouds 3000 ft
Few Clouds 25000 ft
2017/08/17 20:53 KPDX 172053Z 27005KT 10SM FEW030 FEW250 23/12 A3016 RMK AO2 SLP212 T02280117 58012